Time;durP1;ratioP1;P1;durP2;ratioP2;P2;SDS_P1;SDS_P2;PMS_P1;PMS_P2;Temp;Humidity;BMP_temperature;BMP_pressure;BME280_temperature;BME280_humidity;BME280_pressure;Samples;Min_cycle;Max_cycle;Signal;HPM_P1;HPM_P2
2022/05/24 00:01:12;;;;;;;10.80;3.13;;;;;;;16.54;100.00;95720.00;5052055;28;20071;-63
2022/05/24 00:03:38;;;;;;;9.75;3.25;;;;;;;16.40;100.00;95718.34;5061951;28;20397;-63
2022/05/24 00:06:03;;;;;;;6.03;3.05;;;;;;;16.31;100.00;95709.84;5032971;28;20033;-62
2022/05/24 00:08:29;;;;;;;12.15;3.10;;;;;;;16.37;100.00;95712.91;5049892;28;20043;-62
2022/05/24 00:10:54;;;;;;;4.40;2.42;;;;;;;16.18;100.00;95723.56;5033579;28;20029;-63
2022/05/24 00:13:20;;;;;;;5.53;2.60;;;;;;;16.13;100.00;95726.81;5033155;28;20028;-63
2022/05/24 00:15:46;;;;;;;5.57;3.00;;;;;;;16.20;100.00;95731.41;5050364;28;20489;-63
2022/05/24 00:18:21;;;;;;;7.63;3.20;;;;;;;16.11;100.00;95728.47;5051408;28;20052;-62
2022/05/24 00:20:48;;;;;;;5.18;2.10;;;;;;;16.10;100.00;95732.41;5051763;28;20385;-60
2022/05/24 00:23:14;;;;;;;3.90;2.10;;;;;;;16.08;100.00;95718.25;5051582;28;20036;-62
2022/05/24 00:25:45;;;;;;;7.85;2.10;;;;;;;15.92;100.00;95716.22;5050495;28;20037;-62
2022/05/24 00:28:13;;;;;;;4.97;2.03;;;;;;;16.07;100.00;95728.53;5032529;28;20065;-62
2022/05/24 00:30:39;;;;;;;4.95;2.97;;;;;;;16.17;100.00;95713.72;5050732;28;20040;-62
2022/05/24 00:33:05;;;;;;;5.68;2.20;;;;;;;16.30;100.00;95713.84;5050934;28;20496;-64
2022/05/24 00:35:31;;;;;;;5.38;2.42;;;;;;;16.25;100.00;95717.09;5049772;28;20068;-64
2022/05/24 00:37:56;;;;;;;3.63;1.65;;;;;;;16.14;100.00;95722.09;5050725;28;20029;-64
2022/05/24 00:40:33;;;;;;;6.10;2.10;;;;;;;15.76;100.00;95726.00;5050578;28;20502;-64
2022/05/24 00:43:03;;;;;;;5.13;2.28;;;;;;;15.71;100.00;95731.22;5027849;28;20037;-63
2022/05/24 00:45:37;;;;;;;4.30;2.10;;;;;;;15.52;100.00;95719.72;5045651;28;20510;-64
2022/05/24 00:48:11;;;;;;;5.60;2.47;;;;;;;15.69;100.00;95723.34;5050293;28;20037;-63
2022/05/24 00:50:41;;;;;;;5.30;2.58;;;;;;;15.72;100.00;95716.19;5050493;28;20130;-64
2022/05/24 00:53:15;;;;;;;5.80;2.60;;;;;;;15.79;100.00;95713.31;5039380;28;20032;-65
2022/05/24 00:55:48;;;;;;;6.25;2.65;;;;;;;15.66;100.00;95707.63;5032028;28;20033;-65
2022/05/24 00:58:31;;;;;;;6.20;2.00;;;;;;;15.63;100.00;95717.53;5032478;28;20563;-64
2022/05/24 01:01:01;;;;;;;5.38;2.88;;;;;;;15.81;100.00;95716.44;5050479;28;20068;-64
2022/05/24 01:03:27;;;;;;;3.83;1.80;;;;;;;15.85;100.00;95719.91;5048571;28;20032;-66
2022/05/24 01:05:53;;;;;;;4.10;1.88;;;;;;;15.95;100.00;95712.59;5015336;28;21260;-66
2022/05/24 01:08:22;;;;;;;5.05;1.98;;;;;;;15.95;100.00;95712.59;5032791;28;20119;-66
2022/05/24 01:10:52;;;;;;;5.15;2.05;;;;;;;15.95;100.00;95707.09;5048276;28;20163;-64
2022/05/24 01:13:23;;;;;;;6.78;2.67;;;;;;;15.91;100.00;95709.91;5050055;28;20052;-64
2022/05/24 01:15:51;;;;;;;5.78;2.30;;;;;;;16.02;100.00;95716.00;5049746;28;20048;-64
2022/05/24 01:18:17;;;;;;;8.13;2.10;;;;;;;16.03;100.00;95714.03;5032545;28;20031;-65
2022/05/24 01:20:46;;;;;;;5.88;2.78;;;;;;;16.00;100.00;95703.81;5014000;28;20051;-65
2022/05/24 01:23:27;;;;;;;16.40;3.72;;;;;;;16.00;100.00;95712.88;5044031;28;20032;-64
2022/05/24 01:26:41;;;;;;;8.30;3.38;;;;;;;15.90;100.00;95702.84;5016128;28;20029;-66
2022/05/24 01:29:08;;;;;;;9.07;2.50;;;;;;;15.68;100.00;95705.22;4999547;28;20056;-64
2022/05/24 01:37:09;;;;;;;5.22;2.47;;;;;;;14.92;100.00;95697.53;5049575;28;20488;-64
2022/05/24 01:39:35;;;;;;;5.90;2.65;;;;;;;14.98;100.00;95703.34;5033533;28;20044;-64
2022/05/24 01:42:00;;;;;;;6.15;2.65;;;;;;;15.05;100.00;95703.22;5053541;28;20477;-63
2022/05/24 01:44:32;;;;;;;8.18;2.97;;;;;;;15.35;100.00;95694.00;5054279;28;20040;-63
2022/05/24 01:47:00;;;;;;;7.72;3.00;;;;;;;15.50;100.00;95700.03;5052217;28;20521;-64
2022/05/24 01:49:31;;;;;;;7.43;2.70;;;;;;;15.63;100.00;95703.75;5053165;28;20090;-63
2022/05/24 01:52:07;;;;;;;6.10;2.55;;;;;;;15.70;100.00;95691.00;5045454;28;20438;-63
2022/05/24 01:54:38;;;;;;;4.45;2.17;;;;;;;15.85;100.00;95706.88;5053908;28;20021;-64
2022/05/24 01:57:17;;;;;;;11.00;2.50;;;;;;;15.91;100.00;95706.38;5048078;28;20449;-63
2022/05/24 01:59:46;;;;;;;4.45;2.33;;;;;;;15.94;100.00;95714.59;5051279;28;20505;-64
2022/05/24 02:02:12;;;;;;;5.00;2.47;;;;;;;15.90;100.00;95711.13;5050461;28;20498;-63
2022/05/24 02:04:38;;;;;;;5.25;2.40;;;;;;;15.80;100.00;95704.59;5045072;28;20052;-64
2022/05/24 02:07:13;;;;;;;7.70;2.30;;;;;;;15.72;100.00;95711.47;5035031;28;20087;-64
2022/05/24 02:09:45;;;;;;;7.22;3.10;;;;;;;15.63;100.00;95711.25;5053488;28;20033;-64
2022/05/24 02:12:36;;;;;;;6.85;2.60;;;;;;;15.63;100.00;95712.03;5053309;28;20056;-64
2022/05/24 02:15:10;;;;;;;10.23;2.60;;;;;;;15.72;100.00;95694.91;5053825;28;20024;-64
2022/05/24 02:17:40;;;;;;;4.20;2.60;;;;;;;15.85;100.00;95697.81;5032820;28;20493;-62
2022/05/24 02:20:09;;;;;;;7.18;3.15;;;;;;;15.93;100.00;95696.47;5053017;28;20028;-63
2022/05/24 02:22:36;;;;;;;8.50;2.92;;;;;;;15.95;100.00;95693.28;5053255;28;20086;-64
2022/05/24 02:25:14;;;;;;;12.05;3.33;;;;;;;15.88;100.00;95691.44;5043729;28;20025;-62
2022/05/24 02:27:43;;;;;;;7.13;3.22;;;;;;;15.80;100.00;95692.78;5052808;28;20497;-61
2022/05/24 02:30:11;;;;;;;6.22;2.75;;;;;;;15.74;100.00;95687.00;5035644;28;20048;-61
2022/05/24 02:32:37;;;;;;;12.50;2.90;;;;;;;15.70;100.00;95691.78;5053331;28;20028;-61
2022/05/24 02:35:02;;;;;;;5.60;3.13;;;;;;;15.63;100.00;95695.47;5047903;28;20413;-62
2022/05/24 02:37:28;;;;;;;6.43;2.80;;;;;;;15.60;100.00;95695.53;5059019;28;20040;-61
2022/05/24 02:42:37;;;;;;;5.95;3.33;;;;;;;15.56;100.00;95694.84;5053653;28;20108;-62
2022/05/24 02:45:03;;;;;;;6.47;2.50;;;;;;;15.47;100.00;95692.63;5053123;28;20056;-62
2022/05/24 02:47:29;;;;;;;5.63;2.22;;;;;;;15.44;100.00;95690.69;5047270;28;20104;-62
2022/05/24 02:49:55;;;;;;;5.22;2.75;;;;;;;15.37;100.00;95696.34;5057759;28;20049;-61
2022/05/24 02:52:20;;;;;;;6.35;2.65;;;;;;;15.33;100.00;95695.66;5041328;28;20116;-62
2022/05/24 02:54:45;;;;;;;6.38;2.80;;;;;;;15.27;100.00;95690.63;5041534;28;20044;-62
2022/05/24 02:57:11;;;;;;;4.65;2.35;;;;;;;15.24;100.00;95699.72;5060361;28;20084;-62
2022/05/24 02:59:36;;;;;;;4.97;2.13;;;;;;;15.19;100.00;95696.69;5060603;28;20044;-62
2022/05/24 03:02:05;;;;;;;7.63;2.85;;;;;;;15.23;100.00;95692.66;5036902;28;20025;-62
2022/05/24 03:04:34;;;;;;;5.83;2.03;;;;;;;15.14;100.00;95717.22;5062657;28;20084;-61
2022/05/24 03:09:45;;;;;;;5.85;2.13;;;;;;;15.17;100.00;95710.13;5041759;28;20648;-63
2022/05/24 03:14:56;;;;;;;7.95;2.00;;;;;;;15.06;100.00;95711.06;5035871;28;20029;-62
2022/05/24 03:17:22;;;;;;;6.05;1.73;;;;;;;15.01;100.00;95713.53;5052372;28;20059;-61
2022/05/24 03:19:48;;;;;;;3.72;1.50;;;;;;;14.97;100.00;95718.34;5052410;28;20029;-62
2022/05/24 03:22:13;;;;;;;4.93;1.45;;;;;;;14.95;100.00;95717.97;5051807;28;20122;-63
2022/05/24 03:24:40;;;;;;;6.47;1.98;;;;;;;14.95;100.00;95723.50;5050465;28;20101;-64
2022/05/24 03:27:11;;;;;;;5.15;1.60;;;;;;;14.91;100.00;95720.78;5032859;28;20751;-64
2022/05/24 03:29:41;;;;;;;4.72;1.75;;;;;;;14.90;100.00;95724.75;5042129;28;20095;-62
2022/05/24 03:32:08;;;;;;;3.17;1.38;;;;;;;14.97;100.00;95724.63;5042466;28;20025;-62
2022/05/24 03:34:35;;;;;;;6.20;1.80;;;;;;;14.98;100.00;95714.38;5049859;28;20072;-63
2022/05/24 03:37:00;;;;;;;6.32;1.85;;;;;;;14.98;100.00;95717.13;5050457;28;20035;-63
2022/05/24 03:39:26;;;;;;;6.20;1.85;;;;;;;14.97;100.00;95724.63;5043777;28;20029;-64
2022/05/24 03:41:51;;;;;;;4.97;1.55;;;;;;;15.05;100.00;95720.56;5032719;28;20098;-62
2022/05/24 03:44:16;;;;;;;5.00;1.65;;;;;;;15.07;100.00;95726.44;5051585;28;20043;-62
2022/05/24 03:46:42;;;;;;;3.20;1.50;;;;;;;15.05;100.00;95722.53;5042292;28;20035;-61
2022/05/24 03:49:09;;;;;;;7.78;1.95;;;;;;;15.01;100.00;95711.53;5051628;28;20048;-63
2022/05/24 03:51:34;;;;;;;5.97;1.90;;;;;;;15.02;100.00;95715.88;5051401;28;20025;-61
2022/05/24 03:54:00;;;;;;;4.93;1.65;;;;;;;15.02;100.00;95723.38;5050393;28;20510;-63
2022/05/24 03:56:26;;;;;;;3.70;1.70;;;;;;;15.00;100.00;95723.00;5043165;28;20044;-63
2022/05/24 03:58:51;;;;;;;4.07;1.70;;;;;;;14.85;100.00;95733.47;5041013;28;20033;-61
2022/05/24 04:01:17;;;;;;;5.68;1.95;;;;;;;14.83;100.00;95733.13;5031759;28;20045;-62
2022/05/24 04:03:42;;;;;;;12.60;3.28;;;;;;;14.86;100.00;95735.06;5048235;28;20673;-63
2022/05/24 04:06:07;;;;;;;5.63;2.17;;;;;;;14.72;100.00;95739.56;5045524;28;20033;-62
2022/05/24 04:08:33;;;;;;;5.82;2.65;;;;;;;14.70;100.00;95744.72;5047781;28;20482;-61
2022/05/24 04:11:07;;;;;;;4.68;2.35;;;;;;;14.64;100.00;95746.41;5041972;28;20025;-63
2022/05/24 04:13:34;;;;;;;4.13;2.08;;;;;;;14.53;100.00;95760.31;5035047;28;20479;-62
2022/05/24 04:15:59;;;;;;;4.68;1.90;;;;;;;14.50;100.00;95763.88;5050995;28;20025;-62
2022/05/24 04:18:26;;;;;;;7.53;2.30;;;;;;;14.31;100.00;95765.34;5051084;28;20040;-62
2022/05/24 04:20:51;;;;;;;8.95;2.13;;;;;;;14.38;100.00;95772.72;5038837;28;20036;-62
2022/05/24 04:23:19;;;;;;;6.65;2.08;;;;;;;14.28;100.00;95770.91;5045696;28;20025;-63
2022/05/24 04:25:45;;;;;;;5.25;2.08;;;;;;;14.24;100.00;95772.91;5050877;28;20028;-62
2022/05/24 04:28:11;;;;;;;4.65;1.80;;;;;;;14.13;100.00;95773.81;5049439;28;20043;-62
2022/05/24 04:30:36;;;;;;;6.75;1.92;;;;;;;14.14;100.00;95791.91;5050673;28;20028;-62
2022/05/24 04:33:02;;;;;;;18.02;3.53;;;;;;;14.11;100.00;95800.19;5050902;28;20029;-62
2022/05/24 04:35:28;;;;;;;7.93;2.60;;;;;;;14.15;100.00;95800.94;5032338;28;20394;-62
2022/05/24 04:37:53;;;;;;;7.40;2.80;;;;;;;13.98;100.00;95802.72;5050497;28;20036;-61
2022/05/24 04:40:18;;;;;;;8.32;2.75;;;;;;;13.98;100.00;95802.72;5050023;28;20024;-60
2022/05/24 04:42:44;;;;;;;7.78;3.00;;;;;;;14.02;100.00;95806.19;5050019;28;20040;-61
2022/05/24 04:45:12;;;;;;;7.75;2.38;;;;;;;13.93;100.00;95805.91;5032767;28;20052;-61
2022/05/24 04:47:38;;;;;;;5.50;2.60;;;;;;;13.94;100.00;95808.25;5050226;28;20043;-63
2022/05/24 04:50:07;;;;;;;6.90;2.72;;;;;;;13.97;100.00;95798.38;5050448;28;20033;-62
2022/05/24 04:52:37;;;;;;;7.22;3.05;;;;;;;14.03;100.00;95795.97;5054235;28;20440;-62
2022/05/24 04:55:09;;;;;;;7.15;2.60;;;;;;;14.06;100.00;95800.66;5051302;28;20125;-62
2022/05/24 04:57:34;;;;;;;9.20;2.50;;;;;;;14.13;100.00;95800.56;5048738;28;20286;-59
2022/05/24 04:59:59;;;;;;;11.73;3.28;;;;;;;14.13;100.00;95798.63;5055683;28;20113;-62
2022/05/24 05:02:26;;;;;;;24.38;13.82;;;;;;;14.12;100.00;95799.78;5042895;28;20583;-61
2022/05/24 05:04:52;;;;;;;7.78;2.60;;;;;;;14.30;100.00;95810.59;5050448;28;20033;-61
2022/05/24 05:07:19;;;;;;;11.90;2.38;;;;;;;14.14;100.00;95818.66;5060358;28;20084;-62
2022/05/24 05:09:46;;;;;;;4.15;2.28;;;;;;;14.31;100.00;95814.13;5060787;28;20040;-61
2022/05/24 05:12:12;;;;;;;8.00;3.75;;;;;;;14.32;100.00;95808.19;5061830;28;20029;-62
2022/05/24 05:14:39;;;;;;;6.10;3.13;;;;;;;14.46;100.00;95812.75;5059239;28;20034;-62
2022/05/24 05:17:05;;;;;;;6.22;2.97;;;;;;;14.46;100.00;95821.03;5047358;28;20025;-61
2022/05/24 05:19:31;;;;;;;5.03;2.25;;;;;;;14.67;100.00;95822.72;5040508;28;20031;-62
2022/05/24 05:21:57;;;;;;;5.55;2.30;;;;;;;14.72;100.00;95835.25;5041096;28;20029;-62
2022/05/24 05:24:24;;;;;;;3.58;1.70;;;;;;;14.75;100.00;95822.63;5057549;28;20064;-66
2022/05/24 05:26:49;;;;;;;6.28;2.20;;;;;;;14.77;100.00;95820.25;5037274;28;20079;-65
2022/05/24 05:29:15;;;;;;;5.07;2.28;;;;;;;14.71;100.00;95825.41;5056769;28;20707;-67
2022/05/24 05:31:41;;;;;;;3.28;1.80;;;;;;;14.70;100.00;95821.91;5022077;28;20107;-67
2022/05/24 05:34:07;;;;;;;10.75;3.20;;;;;;;14.68;100.00;95827.03;5046087;28;20120;-66
2022/05/24 05:36:33;;;;;;;6.57;2.55;;;;;;;14.63;100.00;95833.03;5038088;28;20040;-68
2022/05/24 05:38:59;;;;;;;9.10;4.43;;;;;;;14.54;100.00;95833.50;5038638;28;20048;-69
2022/05/24 05:41:31;;;;;;;6.65;3.45;;;;;;;14.66;100.00;95842.44;5056493;28;20053;-68
2022/05/24 05:43:58;;;;;;;4.28;2.05;;;;;;;14.68;100.00;95840.81;5048146;28;20128;-66
2022/05/24 05:46:25;;;;;;;7.03;2.33;;;;;;;14.58;100.00;95846.47;5055896;28;20033;-66
2022/05/24 05:48:50;;;;;;;4.82;1.70;;;;;;;14.45;100.00;95860.78;5046735;28;20116;-65
2022/05/24 05:51:18;;;;;;;4.10;2.50;;;;;;;14.49;100.00;95863.47;5056023;28;20538;-63
2022/05/24 05:53:44;;;;;;;3.85;1.80;;;;;;;14.56;100.00;95863.41;5056616;28;20037;-65
2022/05/24 05:56:21;;;;;;;6.60;1.98;;;;;;;14.61;100.00;95873.22;5055708;28;20108;-65
2022/05/24 05:58:49;;;;;;;4.75;2.00;;;;;;;14.60;100.00;95871.63;5054099;28;20130;-65
2022/05/24 06:01:20;;;;;;;4.13;1.73;;;;;;;14.64;100.00;95878.69;5049945;28;20186;-63
2022/05/24 06:03:45;;;;;;;6.68;2.20;;;;;;;14.61;100.00;95889.75;5056413;28;20041;-65
2022/05/24 06:06:18;;;;;;;7.72;2.22;;;;;;;14.55;100.00;95894.91;5055347;28;20086;-66
2022/05/24 06:08:43;;;;;;;5.72;2.15;;;;;;;14.31;100.00;95907.75;5036185;28;20032;-67
2022/05/24 06:11:09;;;;;;;4.30;1.88;;;;;;;14.39;100.00;95903.75;5050809;28;20051;-65
2022/05/24 06:13:34;;;;;;;11.25;4.90;;;;;;;14.40;100.00;95899.78;5054952;28;20116;-67
2022/05/24 06:16:00;;;;;;;7.68;2.78;;;;;;;14.32;100.00;95896.34;5055814;28;20040;-64
2022/05/24 06:18:26;;;;;;;6.25;2.97;;;;;;;14.21;100.00;95901.19;5054314;28;20065;-67
2022/05/24 06:20:51;;;;;;;7.30;2.38;;;;;;;14.14;100.00;95891.03;5056024;28;20064;-67
2022/05/24 06:23:17;;;;;;;10.10;2.65;;;;;;;14.06;100.00;95897.00;5056127;28;20039;-67
2022/05/24 06:25:43;;;;;;;8.02;2.60;;;;;;;14.03;100.00;95903.34;5053112;28;20037;-67
2022/05/24 06:28:13;;;;;;;11.70;5.70;;;;;;;14.00;100.00;95893.94;5035404;28;20064;-68
2022/05/24 06:30:39;;;;;;;5.90;2.95;;;;;;;14.05;100.00;95900.97;5015778;28;20120;-68
2022/05/24 06:33:05;;;;;;;7.40;2.72;;;;;;;14.09;100.00;95910.75;5032001;28;20133;-65
2022/05/24 06:35:30;;;;;;;7.13;2.92;;;;;;;14.11;100.00;95902.09;5043159;28;20474;-67
2022/05/24 06:37:55;;;;;;;6.07;2.75;;;;;;;14.13;100.00;95902.44;5045381;28;20025;-66
2022/05/24 06:40:21;;;;;;;9.20;2.78;;;;;;;14.17;100.00;95905.16;5038667;28;20090;-67
2022/05/24 06:42:47;;;;;;;5.68;2.65;;;;;;;14.33;100.00;95908.94;5053508;28;20508;-66
2022/05/24 06:45:13;;;;;;;3.85;2.30;;;;;;;14.33;100.00;95911.69;5043713;28;20037;-66
2022/05/24 06:47:40;;;;;;;5.82;2.67;;;;;;;14.31;100.00;95916.84;5054036;28;20025;-67
2022/05/24 06:50:06;;;;;;;5.90;2.70;;;;;;;14.39;100.00;95919.50;5053020;28;20029;-67
2022/05/24 06:52:32;;;;;;;5.50;2.20;;;;;;;14.57;100.00;95914.56;5052334;28;20124;-67
2022/05/24 06:54:57;;;;;;;5.53;2.50;;;;;;;14.76;100.00;95917.91;5052770;28;20112;-65
2022/05/24 06:57:23;;;;;;;6.78;2.40;;;;;;;14.89;100.00;95924.41;5033939;28;20028;-66
2022/05/24 07:02:33;;;;;;;6.05;1.95;;;;;;;14.87;100.00;95924.84;5039740;28;20034;-66
2022/05/24 07:05:14;;;;;;;8.95;2.50;;;;;;;14.96;100.00;95926.31;5052026;28;20025;-64
2022/05/24 07:07:40;;;;;;;7.45;2.15;;;;;;;14.96;100.00;95918.03;5051976;28;20126;-66
2022/05/24 07:10:12;;;;;;;7.47;2.58;;;;;;;14.91;100.00;95925.59;5034424;28;20033;-67
2022/05/24 07:12:38;;;;;;;3.78;1.95;;;;;;;15.07;100.00;95926.94;5051662;28;20033;-64
2022/05/24 07:15:05;;;;;;;5.40;2.08;;;;;;;15.11;100.00;95919.41;5038749;28;20111;-67
2022/05/24 07:17:30;;;;;;;5.53;1.73;;;;;;;15.16;100.00;95920.91;5063022;28;20466;-66
2022/05/24 07:19:55;;;;;;;5.70;1.63;;;;;;;15.22;100.00;95911.00;5046173;28;20041;-65
2022/05/24 07:22:21;;;;;;;4.35;2.08;;;;;;;15.26;100.00;95904.22;5019606;28;20630;-65
2022/05/24 07:24:49;;;;;;;3.20;1.80;;;;;;;15.29;100.00;95899.84;5040330;28;20049;-66
2022/05/24 07:27:17;;;;;;;3.38;2.03;;;;;;;15.01;100.00;95929.38;5037619;28;20052;-66
2022/05/24 07:29:43;;;;;;;4.28;2.05;;;;;;;15.06;100.00;95920.66;5033309;28;20044;-67
2022/05/24 07:32:08;;;;;;;5.47;2.28;;;;;;;15.12;100.00;95923.72;5029199;28;20059;-67
2022/05/24 07:34:35;;;;;;;9.18;2.42;;;;;;;15.15;100.00;95933.16;5042267;28;20576;-67
2022/05/24 07:37:02;;;;;;;5.55;2.10;;;;;;;15.20;100.00;95933.47;5041521;28;20061;-68
2022/05/24 07:39:28;;;;;;;7.70;2.30;;;;;;;15.25;100.00;95940.47;5037009;28;20064;-66
2022/05/24 07:47:22;;;;;;;5.00;2.40;;;;;;;15.52;100.00;95934.19;5030333;28;20041;-66
2022/05/24 07:49:48;;;;;;;4.55;1.85;;;;;;;15.35;100.00;95936.03;5041840;28;20037;-67
2022/05/24 07:52:13;;;;;;;4.35;1.90;;;;;;;15.12;100.00;95947.78;5029611;28;20096;-67
2022/05/24 07:54:39;;;;;;;5.10;1.90;;;;;;;15.10;100.00;95953.69;5039350;28;20045;-68
2022/05/24 07:57:09;;;;;;;9.32;2.58;;;;;;;15.15;100.00;95950.47;5036378;28;20557;-63
2022/05/24 07:59:37;;;;;;;9.45;2.63;;;;;;;15.08;100.00;95956.88;5034532;28;20752;-67
2022/05/24 08:02:02;;;;;;;7.13;3.25;;;;;;;14.84;100.00;95977.28;5031964;28;20032;-63
2022/05/24 08:04:28;;;;;;;7.10;3.08;;;;;;;14.66;100.00;95983.00;5035730;28;20534;-68
2022/05/24 08:06:55;;;;;;;6.68;3.35;;;;;;;14.78;100.00;95976.16;5040096;28;20040;-67
2022/05/24 08:09:21;;;;;;;8.27;2.70;;;;;;;14.78;100.00;95968.66;5034885;28;20049;-65
2022/05/24 08:11:46;;;;;;;9.40;2.58;;;;;;;14.73;100.00;95966.38;5040176;28;20055;-67
2022/05/24 08:14:12;;;;;;;5.45;2.40;;;;;;;14.83;100.00;95965.44;5034466;28;20033;-66
2022/05/24 08:16:37;;;;;;;6.70;2.17;;;;;;;14.81;100.00;95976.13;5039752;28;20041;-66
2022/05/24 08:19:04;;;;;;;7.97;3.85;;;;;;;14.78;100.00;95978.91;5039087;28;20036;-62
2022/05/24 08:21:29;;;;;;;6.95;3.45;;;;;;;14.62;100.00;95969.25;5039730;28;20106;-67
2022/05/24 08:23:55;;;;;;;5.57;1.90;;;;;;;14.58;100.00;95976.00;5041380;28;20041;-67
2022/05/24 08:26:21;;;;;;;3.05;1.77;;;;;;;14.60;100.00;95971.63;5035078;28;20404;-68
2022/05/24 08:28:47;;;;;;;3.50;1.48;;;;;;;14.60;100.00;95977.13;5040802;28;20087;-68
2022/05/24 08:31:15;;;;;;;7.55;1.52;;;;;;;14.70;100.00;95976.25;5034737;28;20048;-68
2022/05/24 08:33:42;;;;;;;2.50;1.10;;;;;;;14.53;100.00;95993.72;5039835;28;20132;-68
2022/05/24 08:36:08;;;;;;;5.68;0.90;;;;;;;14.58;100.00;96000.78;5034637;28;20140;-67
2022/05/24 08:38:34;;;;;;;1.77;0.80;;;;;;;14.58;100.00;95992.53;5039675;28;20186;-66
2022/05/24 08:41:02;;;;;;;1.42;0.90;;;;;;;14.51;100.00;95996.91;5040363;28;20131;-66
2022/05/24 08:43:46;;;;;;;2.60;0.90;;;;;;;14.20;100.00;96003.50;5036568;28;20055;-65
2022/05/24 08:49:12;;;;;;;6.32;1.17;;;;;;;13.90;100.00;96022.22;5039540;28;20040;-66
2022/05/24 08:51:47;;;;;;;2.10;1.25;;;;;;;13.94;100.00;96022.19;5040192;28;20048;-67
2022/05/24 08:54:14;;;;;;;2.20;0.80;;;;;;;13.92;100.00;96011.59;5036380;28;20044;-66
2022/05/24 08:56:48;;;;;;;1.90;0.88;;;;;;;13.82;100.00;96017.19;5040442;28;20061;-68
2022/05/24 08:59:26;;;;;;;1.85;0.80;;;;;;;13.99;100.00;96019.03;5035739;28;20052;-67
2022/05/24 09:01:52;;;;;;;1.73;0.70;;;;;;;14.40;100.00;96018.25;5040559;28;20132;-67
2022/05/24 09:04:18;;;;;;;1.70;0.80;;;;;;;14.65;100.00;96020.78;5034858;28;20493;-68
2022/05/24 09:06:54;;;;;;;1.30;0.57;;;;;;;14.98;100.00;96018.47;5039426;28;20041;-67
2022/05/24 09:09:47;;;;;;;6.78;2.00;;;;;;;14.70;100.00;96025.06;5034985;28;20511;-67
2022/05/24 09:12:24;;;;;;;1.67;1.05;;;;;;;15.23;100.00;96034.72;5017622;28;20045;-67
2022/05/24 09:15:01;;;;;;;3.22;0.60;;;;;;;15.26;100.00;96033.09;5039388;28;20158;-67
2022/05/24 09:17:48;;;;;;;2.08;0.70;;;;;;;15.16;100.00;96040.31;5035397;28;20041;-66
2022/05/24 09:20:38;;;;;;;8.32;0.80;;;;;;;15.23;100.00;96037.47;5035463;28;20034;-67
2022/05/24 09:23:29;;;;;;;1.00;0.50;;;;;;;15.47;100.00;96041.09;5022977;28;20045;-63
2022/05/24 09:26:06;;;;;;;1.88;0.50;;;;;;;15.64;100.00;96041.25;5039821;28;20059;-67
2022/05/24 09:28:50;;;;;;;1.98;0.65;;;;;;;15.75;100.00;96052.19;5039829;28;20611;-66
2022/05/24 09:31:39;;;;;;;4.30;0.60;;;;;;;16.08;100.00;96046.94;5017332;28;20107;-66
2022/05/24 09:34:16;;;;;;;3.00;0.50;;;;;;;16.04;100.00;96052.53;5016974;28;20144;-64
2022/05/24 09:37:00;;;;;;;5.93;2.92;;;;;;;15.57;100.00;96055.16;5039695;28;20033;-66
2022/05/24 09:39:32;;;;;;;2.03;0.80;;;;;;;15.41;100.00;96051.03;5034897;28;20131;-65
2022/05/24 09:42:13;;;;;;;1.15;0.55;;;;;;;15.05;100.00;96050.69;5041928;28;20520;-66
2022/05/24 09:44:48;;;;;;;1.55;0.75;;;;;;;14.79;100.00;96052.94;5040197;28;20119;-66
2022/05/24 09:47:27;;;;;;;2.83;0.40;;;;;;;14.60;100.00;96057.06;5034408;28;20116;-67
2022/05/24 09:49:54;;;;;;;0.60;0.40;;;;;;;14.52;100.00;96063.81;5039728;28;20126;-66
2022/05/24 09:52:21;;;;;;;4.15;0.90;;;;;;;14.38;100.00;96067.47;5015722;28;20044;-67
2022/05/24 09:54:59;;;;;;;3.30;0.50;;;;;;;14.27;100.00;96083.31;5039858;28;20164;-65
2022/05/24 09:57:30;;;;;;;0.93;0.70;;;;;;;14.34;100.00;96081.28;5033561;28;20120;-66
2022/05/24 10:00:12;;;;;;;0.60;0.40;;;;;;;14.11;100.00;96092.06;5039015;28;20045;-66
2022/05/24 10:02:42;;;;;;;2.97;0.60;;;;;;;14.02;100.00;96100.78;5042766;28;20571;-65
2022/05/24 10:05:24;;;;;;;0.88;0.70;;;;;;;13.80;100.00;96102.91;5038407;28;20486;-65
2022/05/24 10:08:15;;;;;;;3.90;0.60;;;;;;;13.72;100.00;96106.88;5043425;28;20091;-65
2022/05/24 10:10:47;;;;;;;5.90;1.27;;;;;;;13.76;100.00;96108.44;5013405;28;20044;-65
2022/05/24 10:13:25;;;;;;;1.38;0.68;;;;;;;13.74;100.00;96102.53;5037917;28;20477;-66
2022/05/24 10:16:10;;;;;;;4.20;0.80;;;;;;;13.55;100.00;96112.06;5043070;28;20131;-67
2022/05/24 10:18:41;;;;;;;0.95;0.73;;;;;;;13.85;100.00;96115.47;5042579;28;20095;-65
2022/05/24 10:21:13;;;;;;;5.03;0.75;;;;;;;13.97;100.00;96117.72;5037256;28;20041;-66
2022/05/24 10:24:11;;;;;;;1.45;0.60;;;;;;;14.36;100.00;96124.94;5043726;28;20045;-67
2022/05/24 10:27:03;;;;;;;1.83;0.60;;;;;;;14.52;100.00;96127.19;5041399;28;20037;-66
2022/05/24 10:29:49;;;;;;;3.15;0.75;;;;;;;14.53;100.00;96131.50;5041844;28;20045;-66
2022/05/24 10:38:34;;;;;;;4.97;2.03;;;;;;;14.18;100.00;96138.84;5054007;28;20087;-64
2022/05/24 10:41:05;;;;;;;3.15;1.05;;;;;;;13.93;100.00;96139.78;5043359;28;20041;-66
2022/05/24 10:43:49;;;;;;;1.63;0.90;;;;;;;14.09;100.00;96144.03;5043248;28;20659;-66
2022/05/24 10:46:43;;;;;;;2.35;0.90;;;;;;;14.06;100.00;96145.63;5018776;28;20047;-64
2022/05/24 10:49:18;;;;;;;3.88;1.00;;;;;;;14.24;100.00;96148.25;5025439;28;20041;-66
2022/05/24 10:52:17;;;;;;;3.35;1.10;;;;;;;14.33;100.00;96145.03;5042264;28;20390;-66
2022/05/24 10:54:51;;;;;;;3.05;0.82;;;;;;;14.36;100.00;96155.25;5043346;28;20490;-66
2022/05/24 10:57:26;;;;;;;1.17;0.80;;;;;;;14.32;100.00;96155.28;5038584;28;20155;-66
2022/05/24 11:00:20;;;;;;;1.95;1.13;;;;;;;14.10;100.00;96148.34;5043255;28;20102;-65
2022/05/24 11:03:08;;;;;;;3.35;1.13;;;;;;;14.24;100.00;96144.69;5045198;28;20048;-67
2022/05/24 11:05:44;;;;;;;4.38;1.08;;;;;;;14.30;100.00;96152.13;5048068;28;20097;-67
2022/05/24 11:08:18;;;;;;;3.30;1.05;;;;;;;14.15;100.00;96147.91;5039289;28;20109;-65
2022/05/24 11:10:48;;;;;;;2.58;1.00;;;;;;;14.22;100.00;96153.38;5039537;28;20045;-64
2022/05/24 11:13:25;;;;;;;0.90;0.73;;;;;;;14.18;100.00;96149.84;5037540;28;20040;-64
2022/05/24 11:16:03;;;;;;;4.03;1.02;;;;;;;13.99;100.00;96153.94;5031403;28;20059;-66
2022/05/24 11:18:29;;;;;;;5.07;0.80;;;;;;;14.04;100.00;96156.22;5020530;28;20104;-66
2022/05/24 11:21:10;;;;;;;1.85;0.88;;;;;;;14.02;100.00;96157.84;5032674;28;20049;-65
2022/05/24 11:23:45;;;;;;;3.67;1.00;;;;;;;14.01;100.00;96148.81;5037973;28;20104;-65
2022/05/24 11:26:20;;;;;;;2.13;0.90;;;;;;;14.05;100.00;96149.56;5036798;28;20040;-65
2022/05/24 11:28:51;;;;;;;1.35;0.85;;;;;;;14.31;100.00;96147.41;5041329;28;20113;-65
2022/05/24 11:31:23;;;;;;;3.65;1.17;;;;;;;14.45;100.00;96138.25;5033075;28;20131;-65
2022/05/24 11:33:51;;;;;;;27.65;14.43;;;;;;;14.64;100.00;96143.25;5018884;28;20041;-64
2022/05/24 11:36:32;;;;;;;3.92;1.10;;;;;;;14.88;100.00;96144.22;5020701;28;20080;-64
2022/05/24 11:39:07;;;;;;;4.05;2.58;;;;;;;15.13;100.00;96151.47;5008774;28;20045;-64
2022/05/24 11:41:33;;;;;;;7.57;6.13;;;;;;;15.25;100.00;96148.19;5024023;28;20049;-65
2022/05/24 11:44:26;;;;;;;6.80;1.90;;;;;;;15.55;100.00;96145.88;5025799;28;20048;-65
2022/05/24 11:46:51;;;;;;;5.05;2.90;;;;;;;15.59;100.00;96149.38;5025576;28;20494;-65
2022/05/24 11:49:21;;;;;;;10.57;6.30;;;;;;;15.80;100.00;96143.59;5026105;28;20045;-66
2022/05/24 11:51:49;;;;;;;6.15;1.25;;;;;;;15.04;100.00;96143.66;5039905;28;20051;-66
2022/05/24 11:54:27;;;;;;;5.35;2.15;;;;;;;15.14;100.00;96144.72;5036149;28;20375;-66
2022/05/24 11:57:01;;;;;;;5.97;1.10;;;;;;;14.97;100.00;96148.47;5033170;28;20103;-64
2022/05/24 11:59:38;;;;;;;4.40;1.15;;;;;;;15.23;100.00;96141.50;5036812;28;20075;-66
2022/05/24 12:02:19;;;;;;;4.38;1.00;;;;;;;15.46;100.00;96140.84;5036409;28;20090;-65
2022/05/24 12:08:26;;;;;;;1.90;1.00;;;;;;;15.63;100.00;96145.38;5004088;28;20038;-65
2022/05/24 12:11:06;;;;;;;3.75;1.45;;;;;;;15.91;97.72;96146.22;5020848;28;20084;-65
2022/05/24 12:13:58;;;;;;;4.32;1.52;;;;;;;15.92;97.22;96141.47;5032117;28;20049;-65